sensor_id;sensor_type;location;lat;lon;timestamp;pressure;altitude;pressure_sealevel;temperature;humidity
76762;BME280;65705;51.032;13.790;2022-12-01T00:00:28;101344.31;;;1.68;78.99
76762;BME280;65705;51.032;13.790;2022-12-01T00:02:53;101341.59;;;1.71;79.01
76762;BME280;65705;51.032;13.790;2022-12-01T00:05:19;101346.69;;;1.72;78.91
76762;BME280;65705;51.032;13.790;2022-12-01T00:07:47;101339.06;;;1.69;79.00
76762;BME280;65705;51.032;13.790;2022-12-01T00:10:14;101341.75;;;1.68;79.51
76762;BME280;65705;51.032;13.790;2022-12-01T00:12:52;101339.31;;;1.65;79.09
76762;BME280;65705;51.032;13.790;2022-12-01T00:15:18;101337.63;;;1.64;79.68
76762;BME280;65705;51.032;13.790;2022-12-01T00:17:44;101331.59;;;1.63;79.35
76762;BME280;65705;51.032;13.790;2022-12-01T00:20:11;101334.50;;;1.57;79.72
76762;BME280;65705;51.032;13.790;2022-12-01T00:22:37;101341.41;;;1.57;79.83
76762;BME280;65705;51.032;13.790;2022-12-01T00:25:03;101333.56;;;1.58;79.68
76762;BME280;65705;51.032;13.790;2022-12-01T00:27:29;101340.72;;;1.53;80.09
76762;BME280;65705;51.032;13.790;2022-12-01T00:29:55;101337.19;;;1.54;80.15
76762;BME280;65705;51.032;13.790;2022-12-01T00:32:20;101335.59;;;1.52;79.97
76762;BME280;65705;51.032;13.790;2022-12-01T00:34:46;101335.38;;;1.56;79.56
76762;BME280;65705;51.032;13.790;2022-12-01T00:37:12;101332.88;;;1.55;79.58
76762;BME280;65705;51.032;13.790;2022-12-01T00:39:37;101327.78;;;1.53;79.49
76762;BME280;65705;51.032;13.790;2022-12-01T00:42:03;101326.84;;;1.54;79.74
76762;BME280;65705;51.032;13.790;2022-12-01T00:44:29;101326.31;;;1.48;80.07
76762;BME280;65705;51.032;13.790;2022-12-01T00:46:55;101317.59;;;1.50;79.84
76762;BME280;65705;51.032;13.790;2022-12-01T00:49:20;101328.28;;;1.43;80.26
76762;BME280;65705;51.032;13.790;2022-12-01T00:51:46;101328.91;;;1.48;80.02
76762;BME280;65705;51.032;13.790;2022-12-01T00:54:12;101336.72;;;1.46;80.21
76762;BME280;65705;51.032;13.790;2022-12-01T00:56:38;101333.19;;;1.49;80.25
76762;BME280;65705;51.032;13.790;2022-12-01T00:59:04;101333.09;;;1.50;79.95
76762;BME280;65705;51.032;13.790;2022-12-01T01:01:29;101337.44;;;1.50;79.72
76762;BME280;65705;51.032;13.790;2022-12-01T01:03:56;101341.69;;;1.51;79.52
76762;BME280;65705;51.032;13.790;2022-12-01T01:06:22;101335.75;;;1.49;80.12
76762;BME280;65705;51.032;13.790;2022-12-01T01:08:48;101330.63;;;1.47;80.00
76762;BME280;65705;51.032;13.790;2022-12-01T01:11:14;101333.44;;;1.43;80.10
76762;BME280;65705;51.032;13.790;2022-12-01T01:13:40;101334.22;;;1.45;80.19
76762;BME280;65705;51.032;13.790;2022-12-01T01:16:16;101335.75;;;1.49;80.01
76762;BME280;65705;51.032;13.790;2022-12-01T01:18:43;101338.34;;;1.49;79.89
76762;BME280;65705;51.032;13.790;2022-12-01T01:21:14;101335.75;;;1.49;79.92
76762;BME280;65705;51.032;13.790;2022-12-01T01:23:41;101340.16;;;1.47;80.16
76762;BME280;65705;51.032;13.790;2022-12-01T01:28:36;101336.66;;;1.48;79.57
76762;BME280;65705;51.032;13.790;2022-12-01T01:31:11;101341.81;;;1.48;80.02
76762;BME280;65705;51.032;13.790;2022-12-01T01:33:37;101346.38;;;1.43;80.29
76762;BME280;65705;51.032;13.790;2022-12-01T01:36:04;101348.28;;;1.39;80.13
76762;BME280;65705;51.032;13.790;2022-12-01T01:38:30;101346.31;;;1.44;80.29
76762;BME280;65705;51.032;13.790;2022-12-01T01:40:56;101348.81;;;1.46;80.35
76762;BME280;65705;51.032;13.790;2022-12-01T01:43:42;101346.09;;;1.49;80.13
76762;BME280;65705;51.032;13.790;2022-12-01T01:46:19;101346.22;;;1.46;80.12
76762;BME280;65705;51.032;13.790;2022-12-01T01:49:07;101339.50;;;1.42;80.37
76762;BME280;65705;51.032;13.790;2022-12-01T01:54:07;101336.31;;;1.37;80.20
76762;BME280;65705;51.032;13.790;2022-12-01T01:56:35;101343.19;;;1.38;80.39
76762;BME280;65705;51.032;13.790;2022-12-01T01:59:02;101341.38;;;1.40;80.37
76762;BME280;65705;51.032;13.790;2022-12-01T02:01:29;101343.88;;;1.41;80.24
76762;BME280;65705;51.032;13.790;2022-12-01T02:03:55;101349.03;;;1.41;80.14
76762;BME280;65705;51.032;13.790;2022-12-01T02:06:22;101342.25;;;1.39;79.99
76762;BME280;65705;51.032;13.790;2022-12-01T02:08:48;101342.41;;;1.36;80.07
76762;BME280;65705;51.032;13.790;2022-12-01T02:17:19;101331.91;;;1.39;79.71
76762;BME280;65705;51.032;13.790;2022-12-01T02:33:07;101333.09;;;1.32;80.39
76762;BME280;65705;51.032;13.790;2022-12-01T02:35:46;101344.06;;;1.37;80.00
76762;BME280;65705;51.032;13.790;2022-12-01T02:38:27;101334.78;;;1.33;80.55
76762;BME280;65705;51.032;13.790;2022-12-01T02:46:11;101348.63;;;1.32;80.29
76762;BME280;65705;51.032;13.790;2022-12-01T02:48:42;101347.78;;;1.31;80.17
76762;BME280;65705;51.032;13.790;2022-12-01T02:51:17;101349.31;;;1.35;79.80
76762;BME280;65705;51.032;13.790;2022-12-01T02:53:44;101352.13;;;1.31;80.18
76762;BME280;65705;51.032;13.790;2022-12-01T02:56:12;101347.84;;;1.30;80.62
76762;BME280;65705;51.032;13.790;2022-12-01T02:58:39;101346.94;;;1.31;80.53
76762;BME280;65705;51.032;13.790;2022-12-01T03:03:56;101351.19;;;1.32;80.77
76762;BME280;65705;51.032;13.790;2022-12-01T03:09:08;101350.31;;;1.33;80.70
76762;BME280;65705;51.032;13.790;2022-12-01T03:11:49;101343.38;;;1.33;80.65
76762;BME280;65705;51.032;13.790;2022-12-01T03:16:57;101336.66;;;1.29;81.01
76762;BME280;65705;51.032;13.790;2022-12-01T03:19:39;101343.59;;;1.29;81.08
76762;BME280;65705;51.032;13.790;2022-12-01T03:22:13;101331.44;;;1.31;80.99
76762;BME280;65705;51.032;13.790;2022-12-01T03:24:44;101335.75;;;1.30;81.10
76762;BME280;65705;51.032;13.790;2022-12-01T03:27:11;101337.50;;;1.30;80.81
76762;BME280;65705;51.032;13.790;2022-12-01T03:29:45;101345.88;;;1.35;80.98
76762;BME280;65705;51.032;13.790;2022-12-01T03:32:28;101345.13;;;1.33;81.07
76762;BME280;65705;51.032;13.790;2022-12-01T03:35:18;101350.00;;;1.39;80.63
76762;BME280;65705;51.032;13.790;2022-12-01T03:37:57;101345.84;;;1.36;80.33
76762;BME280;65705;51.032;13.790;2022-12-01T03:40:23;101346.09;;;1.30;80.54
76762;BME280;65705;51.032;13.790;2022-12-01T03:42:57;101345.25;;;1.30;80.75
76762;BME280;65705;51.032;13.790;2022-12-01T03:45:55;101345.19;;;1.31;81.02
76762;BME280;65705;51.032;13.790;2022-12-01T03:48:23;101339.97;;;1.33;80.79
76762;BME280;65705;51.032;13.790;2022-12-01T03:53:23;101346.81;;;1.34;81.18
76762;BME280;65705;51.032;13.790;2022-12-01T03:56:01;101353.59;;;1.36;81.06
76762;BME280;65705;51.032;13.790;2022-12-01T03:58:39;101350.09;;;1.37;80.72
76762;BME280;65705;51.032;13.790;2022-12-01T04:01:06;101349.31;;;1.35;81.02
76762;BME280;65705;51.032;13.790;2022-12-01T04:03:33;101357.00;;;1.37;80.97
76762;BME280;65705;51.032;13.790;2022-12-01T04:05:59;101354.47;;;1.35;80.75
76762;BME280;65705;51.032;13.790;2022-12-01T04:08:24;101359.59;;;1.37;80.64
76762;BME280;65705;51.032;13.790;2022-12-01T04:10:50;101357.06;;;1.35;80.64
76762;BME280;65705;51.032;13.790;2022-12-01T04:13:16;101358.88;;;1.33;80.56
76762;BME280;65705;51.032;13.790;2022-12-01T04:15:49;101357.00;;;1.37;80.69
76762;BME280;65705;51.032;13.790;2022-12-01T04:18:16;101352.94;;;1.31;80.84
76762;BME280;65705;51.032;13.790;2022-12-01T04:20:48;101363.94;;;1.36;80.89
76762;BME280;65705;51.032;13.790;2022-12-01T04:23:14;101344.13;;;1.35;80.91
76762;BME280;65705;51.032;13.790;2022-12-01T04:26:02;101350.94;;;1.38;80.48
76762;BME280;65705;51.032;13.790;2022-12-01T04:28:29;101354.47;;;1.35;80.85
76762;BME280;65705;51.032;13.790;2022-12-01T04:30:55;101351.91;;;1.35;80.64
76762;BME280;65705;51.032;13.790;2022-12-01T04:33:20;101347.78;;;1.31;80.87
76762;BME280;65705;51.032;13.790;2022-12-01T04:35:55;101352.06;;;1.32;80.75
76762;BME280;65705;51.032;13.790;2022-12-01T04:38:21;101352.75;;;1.36;80.99
76762;BME280;65705;51.032;13.790;2022-12-01T04:40:47;101353.59;;;1.36;80.89
76762;BME280;65705;51.032;13.790;2022-12-01T04:43:12;101355.34;;;1.36;80.91
76762;BME280;65705;51.032;13.790;2022-12-01T04:45:38;101356.91;;;1.38;80.91
76762;BME280;65705;51.032;13.790;2022-12-01T04:48:04;101351.13;;;1.33;80.90
76762;BME280;65705;51.032;13.790;2022-12-01T04:50:30;101355.34;;;1.36;81.29
76762;BME280;65705;51.032;13.790;2022-12-01T04:52:55;101349.47;;;1.32;80.99
76762;BME280;65705;51.032;13.790;2022-12-01T04:55:21;101352.06;;;1.32;81.17
76762;BME280;65705;51.032;13.790;2022-12-01T04:57:47;101353.00;;;1.30;80.84
76762;BME280;65705;51.032;13.790;2022-12-01T05:00:13;101362.50;;;1.29;81.00
76762;BME280;65705;51.032;13.790;2022-12-01T05:02:40;101352.41;;;1.25;80.97
76762;BME280;65705;51.032;13.790;2022-12-01T05:05:11;101346.19;;;1.29;81.16
76762;BME280;65705;51.032;13.790;2022-12-01T05:07:37;101347.91;;;1.28;81.07
76762;BME280;65705;51.032;13.790;2022-12-01T05:10:03;101358.41;;;1.25;81.42
76762;BME280;65705;51.032;13.790;2022-12-01T05:12:29;101364.28;;;1.29;81.62
76762;BME280;65705;51.032;13.790;2022-12-01T05:14:55;101364.97;;;1.32;81.26
76762;BME280;65705;51.032;13.790;2022-12-01T05:17:20;101365.81;;;1.33;81.45
76762;BME280;65705;51.032;13.790;2022-12-01T05:19:46;101365.06;;;1.31;81.29
76762;BME280;65705;51.032;13.790;2022-12-01T05:22:30;101366.88;;;1.29;81.64
76762;BME280;65705;51.032;13.790;2022-12-01T05:24:56;101373.16;;;1.23;81.61
76762;BME280;65705;51.032;13.790;2022-12-01T05:27:22;101371.03;;;1.31;81.28
76762;BME280;65705;51.032;13.790;2022-12-01T05:29:47;101366.72;;;1.32;81.53
76762;BME280;65705;51.032;13.790;2022-12-01T05:32:13;101366.63;;;1.33;81.16
76762;BME280;65705;51.032;13.790;2022-12-01T05:34:39;101366.63;;;1.33;81.62
76762;BME280;65705;51.032;13.790;2022-12-01T05:37:05;101367.41;;;1.35;81.27
76762;BME280;65705;51.032;13.790;2022-12-01T05:39:30;101364.91;;;1.34;81.14
76762;BME280;65705;51.032;13.790;2022-12-01T05:41:56;101367.69;;;1.29;81.51
76762;BME280;65705;51.032;13.790;2022-12-01T05:44:22;101373.78;;;1.28;81.50
76762;BME280;65705;51.032;13.790;2022-12-01T05:46:47;101372.94;;;1.28;81.19
76762;BME280;65705;51.032;13.790;2022-12-01T05:49:13;101379.78;;;1.29;81.58
76762;BME280;65705;51.032;13.790;2022-12-01T05:51:39;101383.50;;;1.23;81.43
76762;BME280;65705;51.032;13.790;2022-12-01T05:54:05;101383.34;;;1.26;80.90
76762;BME280;65705;51.032;13.790;2022-12-01T05:56:30;101379.72;;;1.30;80.76
76762;BME280;65705;51.032;13.790;2022-12-01T05:58:56;101387.41;;;1.32;79.99
76762;BME280;65705;51.032;13.790;2022-12-01T06:01:22;101391.47;;;1.37;80.19
76762;BME280;65705;51.032;13.790;2022-12-01T06:03:47;101390.00;;;1.32;80.15
76762;BME280;65705;51.032;13.790;2022-12-01T06:06:13;101383.94;;;1.33;79.81
76762;BME280;65705;51.032;13.790;2022-12-01T06:08:39;101389.13;;;1.31;79.91
76762;BME280;65705;51.032;13.790;2022-12-01T06:11:04;101388.31;;;1.31;79.90
76762;BME280;65705;51.032;13.790;2022-12-01T06:13:30;101388.31;;;1.31;80.36
76762;BME280;65705;51.032;13.790;2022-12-01T06:16:00;101390.06;;;1.30;79.92
76762;BME280;65705;51.032;13.790;2022-12-01T06:18:30;101387.25;;;1.35;79.78
76762;BME280;65705;51.032;13.790;2022-12-01T06:20:56;101390.06;;;1.30;79.55
76762;BME280;65705;51.032;13.790;2022-12-01T06:23:22;101388.38;;;1.29;79.78
76762;BME280;65705;51.032;13.790;2022-12-01T06:25:48;101393.59;;;1.28;80.17
76762;BME280;65705;51.032;13.790;2022-12-01T06:28:14;101393.50;;;1.31;80.22
76762;BME280;65705;51.032;13.790;2022-12-01T06:30:40;101394.38;;;1.30;80.65
76762;BME280;65705;51.032;13.790;2022-12-01T06:33:06;101401.44;;;1.26;80.27
76762;BME280;65705;51.032;13.790;2022-12-01T06:35:31;101397.19;;;1.25;80.35
76762;BME280;65705;51.032;13.790;2022-12-01T06:37:57;101396.28;;;1.26;80.51
76762;BME280;65705;51.032;13.790;2022-12-01T06:40:23;101398.72;;;1.29;80.55
76762;BME280;65705;51.032;13.790;2022-12-01T06:42:49;101403.84;;;1.31;80.13
76762;BME280;65705;51.032;13.790;2022-12-01T06:45:14;101402.13;;;1.30;80.10
76762;BME280;65705;51.032;13.790;2022-12-01T06:47:40;101409.00;;;1.31;79.93
76762;BME280;65705;51.032;13.790;2022-12-01T06:50:06;101409.91;;;1.30;80.31
76762;BME280;65705;51.032;13.790;2022-12-01T06:52:35;101404.16;;;1.23;80.14
76762;BME280;65705;51.032;13.790;2022-12-01T06:55:01;101407.53;;;1.25;79.99
76762;BME280;65705;51.032;13.790;2022-12-01T06:57:29;101412.72;;;1.25;79.85
76762;BME280;65705;51.032;13.790;2022-12-01T06:59:54;101410.03;;;1.27;79.58
76762;BME280;65705;51.032;13.790;2022-12-01T07:02:20;101413.53;;;1.26;79.58
76762;BME280;65705;51.032;13.790;2022-12-01T07:04:49;101411.72;;;1.28;79.62
76762;BME280;65705;51.032;13.790;2022-12-01T07:07:15;101416.00;;;1.29;79.50
76762;BME280;65705;51.032;13.790;2022-12-01T07:09:41;101419.47;;;1.28;79.63
76762;BME280;65705;51.032;13.790;2022-12-01T07:12:07;101412.50;;;1.30;79.59
76762;BME280;65705;51.032;13.790;2022-12-01T07:14:32;101417.88;;;1.25;79.76
76762;BME280;65705;51.032;13.790;2022-12-01T07:16:58;101422.06;;;1.28;79.95
76762;BME280;65705;51.032;13.790;2022-12-01T07:19:24;101422.72;;;1.33;79.61
76762;BME280;65705;51.032;13.790;2022-12-01T07:21:50;101429.56;;;1.34;79.19
76762;BME280;65705;51.032;13.790;2022-12-01T07:24:15;101429.63;;;1.32;79.76
76762;BME280;65705;51.032;13.790;2022-12-01T07:26:42;101434.56;;;1.37;79.52
76762;BME280;65705;51.032;13.790;2022-12-01T07:29:09;101431.22;;;1.35;79.63
76762;BME280;65705;51.032;13.790;2022-12-01T07:31:35;101436.06;;;1.42;79.34
76762;BME280;65705;51.032;13.790;2022-12-01T07:34:02;101436.19;;;1.39;78.61
76762;BME280;65705;51.032;13.790;2022-12-01T07:36:27;101437.63;;;1.26;78.83
76762;BME280;65705;51.032;13.790;2022-12-01T07:38:53;101437.56;;;1.28;79.09
76762;BME280;65705;51.032;13.790;2022-12-01T07:41:19;101430.88;;;1.24;79.29
76762;BME280;65705;51.032;13.790;2022-12-01T07:43:48;101435.97;;;1.25;79.25
76762;BME280;65705;51.032;13.790;2022-12-01T07:46:21;101434.97;;;1.28;78.75
76762;BME280;65705;51.032;13.790;2022-12-01T07:48:49;101431.63;;;1.26;79.01
76762;BME280;65705;51.032;13.790;2022-12-01T07:51:15;101430.81;;;1.25;79.40
76762;BME280;65705;51.032;13.790;2022-12-01T07:53:42;101436.53;;;1.32;79.29
76762;BME280;65705;51.032;13.790;2022-12-01T07:56:08;101433.88;;;1.33;78.96
76762;BME280;65705;51.032;13.790;2022-12-01T07:58:35;101435.56;;;1.34;79.27
76762;BME280;65705;51.032;13.790;2022-12-01T08:01:06;101433.00;;;1.34;78.99
76762;BME280;65705;51.032;13.790;2022-12-01T08:03:32;101442.34;;;1.37;79.18
76762;BME280;65705;51.032;13.790;2022-12-01T08:05:59;101441.38;;;1.39;79.17
76762;BME280;65705;51.032;13.790;2022-12-01T08:08:25;101443.09;;;1.39;78.94
76762;BME280;65705;51.032;13.790;2022-12-01T08:10:52;101445.63;;;1.40;78.54
76762;BME280;65705;51.032;13.790;2022-12-01T08:13:19;101438.63;;;1.42;78.78
76762;BME280;65705;51.032;13.790;2022-12-01T08:15:45;101438.72;;;1.41;79.03
76762;BME280;65705;51.032;13.790;2022-12-01T08:18:11;101441.22;;;1.42;78.83
76762;BME280;65705;51.032;13.790;2022-12-01T08:20:37;101445.22;;;1.49;79.11
76762;BME280;65705;51.032;13.790;2022-12-01T08:23:02;101442.50;;;1.52;78.90
76762;BME280;65705;51.032;13.790;2022-12-01T08:25:29;101448.44;;;1.54;78.50
76762;BME280;65705;51.032;13.790;2022-12-01T08:27:55;101448.03;;;1.45;78.78
76762;BME280;65705;51.032;13.790;2022-12-01T08:30:21;101445.50;;;1.43;79.15
76762;BME280;65705;51.032;13.790;2022-12-01T08:32:47;101451.47;;;1.45;78.83
76762;BME280;65705;51.032;13.790;2022-12-01T08:35:12;101449.84;;;1.43;79.21
76762;BME280;65705;51.032;13.790;2022-12-01T08:37:38;101449.84;;;1.43;79.13
76762;BME280;65705;51.032;13.790;2022-12-01T08:40:04;101448.03;;;1.45;79.35
76762;BME280;65705;51.032;13.790;2022-12-01T08:42:30;101446.22;;;1.47;79.45
76762;BME280;65705;51.032;13.790;2022-12-01T08:44:56;101446.28;;;1.45;78.93
76762;BME280;65705;51.032;13.790;2022-12-01T08:47:21;101442.00;;;1.44;79.15
76762;BME280;65705;51.032;13.790;2022-12-01T08:49:47;101448.78;;;1.47;78.74
76762;BME280;65705;51.032;13.790;2022-12-01T08:52:13;101453.03;;;1.48;78.54
76762;BME280;65705;51.032;13.790;2022-12-01T08:54:39;101457.53;;;1.44;78.96
76762;BME280;65705;51.032;13.790;2022-12-01T08:57:04;101455.72;;;1.46;78.94
76762;BME280;65705;51.032;13.790;2022-12-01T08:59:30;101452.97;;;1.49;78.94
76762;BME280;65705;51.032;13.790;2022-12-01T09:01:56;101452.19;;;1.47;78.88
76762;BME280;65705;51.032;13.790;2022-12-01T09:04:23;101458.22;;;1.48;78.99
76762;BME280;65705;51.032;13.790;2022-12-01T09:06:51;101451.56;;;1.42;79.38
76762;BME280;65705;51.032;13.790;2022-12-01T09:09:23;101458.69;;;1.37;79.70
76762;BME280;65705;51.032;13.790;2022-12-01T09:11:49;101457.66;;;1.41;80.16
76762;BME280;65705;51.032;13.790;2022-12-01T09:14:17;101454.22;;;1.41;79.63
76762;BME280;65705;51.032;13.790;2022-12-01T09:16:45;101457.44;;;1.46;79.71
76762;BME280;65705;51.032;13.790;2022-12-01T09:19:12;101458.03;;;1.52;79.51
76762;BME280;65705;51.032;13.790;2022-12-01T09:21:38;101460.47;;;1.55;79.59
76762;BME280;65705;51.032;13.790;2022-12-01T09:24:05;101454.25;;;1.59;78.91
76762;BME280;65705;51.032;13.790;2022-12-01T09:26:32;101453.41;;;1.59;78.92
76762;BME280;65705;51.032;13.790;2022-12-01T09:29:04;101456.63;;;1.64;78.75
76762;BME280;65705;51.032;13.790;2022-12-01T09:31:30;101452.28;;;1.64;78.99
76762;BME280;65705;51.032;13.790;2022-12-01T09:33:58;101448.94;;;1.62;78.79
76762;BME280;65705;51.032;13.790;2022-12-01T09:36:25;101450.69;;;1.62;78.46
76762;BME280;65705;51.032;13.790;2022-12-01T09:38:50;101461.88;;;1.62;78.56
76762;BME280;65705;51.032;13.790;2022-12-01T09:41:45;101447.19;;;1.63;78.65
76762;BME280;65705;51.032;13.790;2022-12-01T09:46:53;101450.25;;;1.71;78.60
76762;BME280;65705;51.032;13.790;2022-12-01T09:49:28;101450.13;;;1.74;78.52
76762;BME280;65705;51.032;13.790;2022-12-01T09:52:00;101442.94;;;1.80;78.29
76762;BME280;65705;51.032;13.790;2022-12-01T09:54:27;101453.34;;;1.79;78.65
76762;BME280;65705;51.032;13.790;2022-12-01T09:56:53;101450.34;;;1.88;78.28
76762;BME280;65705;51.032;13.790;2022-12-01T09:59:25;101447.94;;;1.83;78.42
76762;BME280;65705;51.032;13.790;2022-12-01T10:01:58;101447.75;;;1.88;78.13
76762;BME280;65705;51.032;13.790;2022-12-01T10:04:32;101437.41;;;1.88;77.91
76762;BME280;65705;51.032;13.790;2022-12-01T10:07:03;101440.53;;;1.94;77.60
76762;BME280;65705;51.032;13.790;2022-12-01T10:09:43;101439.91;;;1.89;77.52
76762;BME280;65705;51.032;13.790;2022-12-01T10:12:13;101438.03;;;1.93;77.77
76762;BME280;65705;51.032;13.790;2022-12-01T10:14:39;101437.31;;;1.89;78.28
76762;BME280;65705;51.032;13.790;2022-12-01T10:19:48;101443.97;;;1.95;78.36
76762;BME280;65705;51.032;13.790;2022-12-01T10:25:14;101431.72;;;1.98;77.54
76762;BME280;65705;51.032;13.790;2022-12-01T10:30:19;101429.25;;;1.95;77.76
76762;BME280;65705;51.032;13.790;2022-12-01T10:33:03;101428.72;;;1.89;77.68
76762;BME280;65705;51.032;13.790;2022-12-01T10:35:31;101427.66;;;1.93;77.80
76762;BME280;65705;51.032;13.790;2022-12-01T10:38:12;101425.28;;;1.88;77.74
76762;BME280;65705;51.032;13.790;2022-12-01T10:40:39;101425.22;;;1.90;77.68
76762;BME280;65705;51.032;13.790;2022-12-01T10:43:08;101413.78;;;1.94;80.93
76762;BME280;65705;51.032;13.790;2022-12-01T10:45:40;101420.50;;;1.98;79.37
76762;BME280;65705;51.032;13.790;2022-12-01T10:48:21;101416.88;;;2.02;78.24
76762;BME280;65705;51.032;13.790;2022-12-01T10:53:26;101410.44;;;1.92;78.21
76762;BME280;65705;51.032;13.790;2022-12-01T10:58:37;101421.78;;;1.89;78.62
76762;BME280;65705;51.032;13.790;2022-12-01T11:01:05;101413.19;;;1.89;78.75
76762;BME280;65705;51.032;13.790;2022-12-01T11:03:33;101410.31;;;1.95;78.37
76762;BME280;65705;51.032;13.790;2022-12-01T11:06:01;101407.03;;;1.91;78.76
76762;BME280;65705;51.032;13.790;2022-12-01T11:08:34;101402.31;;;1.99;78.31
76762;BME280;65705;51.032;13.790;2022-12-01T11:11:02;101406.03;;;1.94;78.04
76762;BME280;65705;51.032;13.790;2022-12-01T11:13:30;101410.25;;;1.96;80.69
76762;BME280;65705;51.032;13.790;2022-12-01T11:16:01;101407.53;;;2.17;81.93
76762;BME280;65705;51.032;13.790;2022-12-01T11:18:32;101404.44;;;2.27;80.04
76762;BME280;65705;51.032;13.790;2022-12-01T11:21:13;101406.13;;;2.45;80.18
76762;BME280;65705;51.032;13.790;2022-12-01T11:23:47;101403.28;;;2.50;78.24
76762;BME280;65705;51.032;13.790;2022-12-01T11:26:18;101397.06;;;2.54;76.66
76762;BME280;65705;51.032;13.790;2022-12-01T11:28:52;101401.06;;;2.42;76.46
76762;BME280;65705;51.032;13.790;2022-12-01T11:31:19;101398.94;;;2.33;76.90
76762;BME280;65705;51.032;13.790;2022-12-01T11:33:52;101401.00;;;2.27;76.77
76762;BME280;65705;51.032;13.790;2022-12-01T11:36:26;101400.47;;;2.20;77.13
76762;BME280;65705;51.032;13.790;2022-12-01T11:38:58;101398.16;;;2.14;77.80
76762;BME280;65705;51.032;13.790;2022-12-01T11:41:36;101393.59;;;2.19;77.34
76762;BME280;65705;51.032;13.790;2022-12-01T11:44:04;101388.50;;;2.17;77.49
76762;BME280;65705;51.032;13.790;2022-12-01T11:46:35;101387.50;;;2.20;77.31
76762;BME280;65705;51.032;13.790;2022-12-01T11:49:01;101394.72;;;2.13;77.41
76762;BME280;65705;51.032;13.790;2022-12-01T11:51:30;101389.53;;;2.13;77.26
76762;BME280;65705;51.032;13.790;2022-12-01T11:56:45;101393.34;;;2.06;77.66
76762;BME280;65705;51.032;13.790;2022-12-01T11:59:15;101381.09;;;2.10;77.61
76762;BME280;65705;51.032;13.790;2022-12-01T12:20:39;101377.97;;;2.21;77.08
76762;BME280;65705;51.032;13.790;2022-12-01T12:28:51;101364.28;;;2.53;78.09
76762;BME280;65705;51.032;13.790;2022-12-01T12:42:44;101367.94;;;2.49;75.02
76762;BME280;65705;51.032;13.790;2022-12-01T12:48:28;101375.56;;;2.35;75.06
76762;BME280;65705;51.032;13.790;2022-12-01T12:51:11;101363.84;;;2.28;74.95
76762;BME280;65705;51.032;13.790;2022-12-01T12:56:29;101364.81;;;2.25;75.36
76762;BME280;65705;51.032;13.790;2022-12-01T12:59:02;101365.59;;;2.27;74.88
76762;BME280;65705;51.032;13.790;2022-12-01T13:01:44;101373.47;;;2.24;74.94
76762;BME280;65705;51.032;13.790;2022-12-01T13:04:56;101365.56;;;2.10;75.64
76762;BME280;65705;51.032;13.790;2022-12-01T13:07:46;101368.22;;;2.08;75.96
76762;BME280;65705;51.032;13.790;2022-12-01T13:13:02;101367.63;;;2.03;76.33
76762;BME280;65705;51.032;13.790;2022-12-01T13:15:33;101364.09;;;2.04;75.99
76762;BME280;65705;51.032;13.790;2022-12-01T13:18:08;101364.09;;;2.04;76.20
76762;BME280;65705;51.032;13.790;2022-12-01T13:20:37;101359.84;;;2.03;76.23
76762;BME280;65705;51.032;13.790;2022-12-01T13:23:04;101365.09;;;2.02;76.42
76762;BME280;65705;51.032;13.790;2022-12-01T13:25:36;101364.19;;;2.03;76.33
76762;BME280;65705;51.032;13.790;2022-12-01T13:28:04;101359.16;;;2.00;76.67
76762;BME280;65705;51.032;13.790;2022-12-01T13:30:36;101364.34;;;2.17;81.86
76762;BME280;65705;51.032;13.790;2022-12-01T13:33:03;101369.31;;;2.39;78.85
76762;BME280;65705;51.032;13.790;2022-12-01T13:35:32;101361.97;;;2.30;76.00
76762;BME280;65705;51.032;13.790;2022-12-01T13:38:22;101366.94;;;2.17;75.58
76762;BME280;65705;51.032;13.790;2022-12-01T13:41:09;101362.16;;;2.09;75.67
76762;BME280;65705;51.032;13.790;2022-12-01T13:43:36;101363.03;;;2.08;76.57
76762;BME280;65705;51.032;13.790;2022-12-01T13:46:22;101363.19;;;2.05;76.72
76762;BME280;65705;51.032;13.790;2022-12-01T13:48:51;101358.72;;;2.09;76.08
76762;BME280;65705;51.032;13.790;2022-12-01T13:51:17;101356.41;;;2.03;76.27
76762;BME280;65705;51.032;13.790;2022-12-01T13:54:27;101364.34;;;2.00;76.37
76762;BME280;65705;51.032;13.790;2022-12-01T13:57:03;101360.97;;;1.98;76.53
76762;BME280;65705;51.032;13.790;2022-12-01T14:00:00;101366.75;;;2.03;76.19
76762;BME280;65705;51.032;13.790;2022-12-01T14:02:22;101367.06;;;1.97;76.43
76762;BME280;65705;51.032;13.790;2022-12-01T14:04:48;101358.66;;;1.92;76.47
76762;BME280;65705;51.032;13.790;2022-12-01T14:07:20;101363.81;;;1.93;76.63
76762;BME280;65705;51.032;13.790;2022-12-01T14:09:48;101361.50;;;1.87;77.31
76762;BME280;65705;51.032;13.790;2022-12-01T14:12:29;101361.56;;;1.86;77.13
76762;BME280;65705;51.032;13.790;2022-12-01T14:18:03;101348.03;;;1.81;76.67
76762;BME280;65705;51.032;13.790;2022-12-01T14:20:32;101356.13;;;1.73;77.07
76762;BME280;65705;51.032;13.790;2022-12-01T14:25:28;101349.06;;;1.77;77.25
76762;BME280;65705;51.032;13.790;2022-12-01T14:27:59;101345.28;;;1.65;77.37
76762;BME280;65705;51.032;13.790;2022-12-01T14:33:44;101343.41;;;1.69;77.58
76762;BME280;65705;51.032;13.790;2022-12-01T14:39:32;101353.75;;;1.69;77.81
76762;BME280;65705;51.032;13.790;2022-12-01T14:46:58;101353.22;;;1.62;77.71
76762;BME280;65705;51.032;13.790;2022-12-01T14:49:33;101355.09;;;1.59;78.22
76762;BME280;65705;51.032;13.790;2022-12-01T14:52:05;101351.81;;;1.55;78.20
76762;BME280;65705;51.032;13.790;2022-12-01T14:54:36;101346.66;;;1.55;78.04
76762;BME280;65705;51.032;13.790;2022-12-01T14:57:05;101346.56;;;1.57;78.11
76762;BME280;65705;51.032;13.790;2022-12-01T14:59:31;101345.03;;;1.53;78.51
76762;BME280;65705;51.032;13.790;2022-12-01T15:02:02;101347.00;;;1.48;78.40